sensor_id;sensor_type;location;lat;lon;timestamp;pressure;altitude;pressure_sealevel;temperature;humidity
20612;BME280;10465;42.686;23.364;2023-02-04T00:00:26;94782.22;;;3.93;76.23
20612;BME280;10465;42.686;23.364;2023-02-04T00:02:53;94796.31;;;3.92;75.97
20612;BME280;10465;42.686;23.364;2023-02-04T00:05:18;94768.34;;;3.82;76.66
20612;BME280;10465;42.686;23.364;2023-02-04T00:07:44;94771.19;;;3.91;77.29
20612;BME280;10465;42.686;23.364;2023-02-04T00:10:10;94786.38;;;3.94;77.21
20612;BME280;10465;42.686;23.364;2023-02-04T00:12:35;94775.66;;;3.85;77.42
20612;BME280;10465;42.686;23.364;2023-02-04T00:15:01;94753.41;;;3.78;77.71
20612;BME280;10465;42.686;23.364;2023-02-04T00:17:26;94760.19;;;3.84;78.27
20612;BME280;10465;42.686;23.364;2023-02-04T00:19:52;94762.28;;;3.77;77.74
20612;BME280;10465;42.686;23.364;2023-02-04T00:22:18;94752.09;;;3.85;78.03
20612;BME280;10465;42.686;23.364;2023-02-04T00:24:44;94764.63;;;3.88;77.17
20612;BME280;10465;42.686;23.364;2023-02-04T00:27:14;94756.25;;;3.91;77.97
20612;BME280;10465;42.686;23.364;2023-02-04T00:29:39;94748.44;;;3.86;78.06
20612;BME280;10465;42.686;23.364;2023-02-04T00:32:05;94742.16;;;3.67;77.79
20612;BME280;10465;42.686;23.364;2023-02-04T00:34:30;94716.78;;;3.52;77.94
20612;BME280;10465;42.686;23.364;2023-02-04T00:36:56;94733.53;;;3.51;78.45
20612;BME280;10465;42.686;23.364;2023-02-04T00:39:21;94740.06;;;3.59;78.29
20612;BME280;10465;42.686;23.364;2023-02-04T00:41:47;94724.91;;;3.56;77.78
20612;BME280;10465;42.686;23.364;2023-02-04T00:44:12;94749.22;;;3.71;78.04
20612;BME280;10465;42.686;23.364;2023-02-04T00:46:41;94710.78;;;3.57;77.93
20612;BME280;10465;42.686;23.364;2023-02-04T00:49:07;94737.97;;;3.71;77.80
20612;BME280;10465;42.686;23.364;2023-02-04T00:51:36;94738.50;;;3.63;77.93
20612;BME280;10465;42.686;23.364;2023-02-04T00:54:02;94715.47;;;3.55;78.22
20612;BME280;10465;42.686;23.364;2023-02-04T00:56:27;94716.81;;;3.42;78.54
20612;BME280;10465;42.686;23.364;2023-02-04T00:58:53;94733.56;;;3.46;78.43
20612;BME280;10465;42.686;23.364;2023-02-04T01:01:18;94688.28;;;3.20;78.74
20612;BME280;10465;42.686;23.364;2023-02-04T01:03:44;94735.63;;;3.44;79.28
20612;BME280;10465;42.686;23.364;2023-02-04T01:06:10;94717.84;;;3.41;78.89
20612;BME280;10465;42.686;23.364;2023-02-04T01:08:35;94707.41;;;3.41;78.46
20612;BME280;10465;42.686;23.364;2023-02-04T01:11:01;94699.50;;;3.51;78.90
20612;BME280;10465;42.686;23.364;2023-02-04T01:13:26;94686.72;;;3.50;77.98
20612;BME280;10465;42.686;23.364;2023-02-04T01:15:51;94682.53;;;3.49;77.94
20612;BME280;10465;42.686;23.364;2023-02-04T01:18:17;94660.03;;;3.27;77.50
20612;BME280;10465;42.686;23.364;2023-02-04T01:20:42;94681.22;;;3.36;78.69
20612;BME280;10465;42.686;23.364;2023-02-04T01:23:08;94685.41;;;3.47;78.20
20612;BME280;10465;42.686;23.364;2023-02-04T01:25:33;94686.16;;;3.47;78.20
20612;BME280;10465;42.686;23.364;2023-02-04T01:27:59;94691.41;;;3.53;78.50
20612;BME280;10465;42.686;23.364;2023-02-04T01:30:24;94643.56;;;3.37;78.22
20612;BME280;10465;42.686;23.364;2023-02-04T01:32:49;94673.34;;;3.61;78.50
20612;BME280;10465;42.686;23.364;2023-02-04T01:35:15;94645.88;;;3.43;78.29
20612;BME280;10465;42.686;23.364;2023-02-04T01:37:40;94664.94;;;3.64;77.96
20612;BME280;10465;42.686;23.364;2023-02-04T01:40:06;94632.78;;;3.43;77.98
20612;BME280;10465;42.686;23.364;2023-02-04T01:42:33;94641.44;;;3.44;77.88
20612;BME280;10465;42.686;23.364;2023-02-04T01:44:58;94620.50;;;3.39;77.47
20612;BME280;10465;42.686;23.364;2023-02-04T01:47:24;94639.63;;;3.34;77.84
20612;BME280;10465;42.686;23.364;2023-02-04T01:49:51;94629.41;;;3.43;77.24
20612;BME280;10465;42.686;23.364;2023-02-04T01:52:19;94609.81;;;3.30;77.57
20612;BME280;10465;42.686;23.364;2023-02-04T01:54:44;94643.25;;;3.43;77.60
20612;BME280;10465;42.686;23.364;2023-02-04T01:57:14;94656.09;;;3.45;77.93
20612;BME280;10465;42.686;23.364;2023-02-04T01:59:42;94599.41;;;3.05;78.22
20612;BME280;10465;42.686;23.364;2023-02-04T02:02:44;94642.50;;;3.38;78.66
20612;BME280;10465;42.686;23.364;2023-02-04T02:05:14;94621.06;;;3.31;78.49
20612;BME280;10465;42.686;23.364;2023-02-04T02:07:41;94631.28;;;3.17;79.32
20612;BME280;10465;42.686;23.364;2023-02-04T02:10:08;94650.88;;;3.30;79.62
20612;BME280;10465;42.686;23.364;2023-02-04T02:12:35;94632.56;;;3.35;79.47
20612;BME280;10465;42.686;23.364;2023-02-04T02:15:00;94626.53;;;3.39;79.11
20612;BME280;10465;42.686;23.364;2023-02-04T02:17:26;94559.66;;;2.87;78.86
20612;BME280;10465;42.686;23.364;2023-02-04T02:19:52;94614.75;;;3.42;79.44
20612;BME280;10465;42.686;23.364;2023-02-04T02:23:01;94625.19;;;3.47;79.15
20612;BME280;10465;42.686;23.364;2023-02-04T02:25:25;94623.66;;;3.36;78.21
20612;BME280;10465;42.686;23.364;2023-02-04T02:27:50;94587.13;;;2.49;80.61
20612;BME280;10465;42.686;23.364;2023-02-04T02:30:16;94595.22;;;2.93;80.76
20612;BME280;10465;42.686;23.364;2023-02-04T02:32:45;94580.81;;;3.16;79.47
20612;BME280;10465;42.686;23.364;2023-02-04T02:35:11;94536.63;;;3.00;79.06
20612;BME280;10465;42.686;23.364;2023-02-04T02:37:37;94518.34;;;2.89;78.43
20612;BME280;10465;42.686;23.364;2023-02-04T02:40:04;94530.84;;;3.08;78.34
20612;BME280;10465;42.686;23.364;2023-02-04T02:42:30;94520.41;;;3.08;78.30
20612;BME280;10465;42.686;23.364;2023-02-04T02:44:56;94536.59;;;3.25;78.38
20612;BME280;10465;42.686;23.364;2023-02-04T02:47:22;94526.09;;;3.30;77.84
20612;BME280;10465;42.686;23.364;2023-02-04T02:49:50;94533.13;;;3.35;77.88
20612;BME280;10465;42.686;23.364;2023-02-04T02:52:17;94537.59;;;3.34;77.38
20612;BME280;10465;42.686;23.364;2023-02-04T02:54:43;94531.56;;;3.39;77.76
20612;BME280;10465;42.686;23.364;2023-02-04T02:57:15;94531.25;;;3.51;77.13
20612;BME280;10465;42.686;23.364;2023-02-04T02:59:41;94541.72;;;3.51;76.72
20612;BME280;10465;42.686;23.364;2023-02-04T03:02:08;94544.09;;;3.47;76.40
20612;BME280;10465;42.686;23.364;2023-02-04T03:04:44;94544.63;;;3.49;75.97
20612;BME280;10465;42.686;23.364;2023-02-04T03:07:12;94542.56;;;3.41;75.97
20612;BME280;10465;42.686;23.364;2023-02-04T03:09:38;94546.69;;;3.47;75.72
20612;BME280;10465;42.686;23.364;2023-02-04T03:12:04;94524.75;;;3.38;76.32
20612;BME280;10465;42.686;23.364;2023-02-04T03:14:31;94554.31;;;3.43;76.45
20612;BME280;10465;42.686;23.364;2023-02-04T03:16:58;94549.84;;;3.49;76.22
20612;BME280;10465;42.686;23.364;2023-02-04T03:19:24;94547.19;;;3.54;75.97
20612;BME280;10465;42.686;23.364;2023-02-04T03:21:51;94538.03;;;3.57;76.66
20612;BME280;10465;42.686;23.364;2023-02-04T03:24:17;94523.69;;;3.44;76.38
20612;BME280;10465;42.686;23.364;2023-02-04T03:26:42;94538.28;;;3.55;75.98
20612;BME280;10465;42.686;23.364;2023-02-04T03:29:09;94505.66;;;3.37;75.80
20612;BME280;10465;42.686;23.364;2023-02-04T03:31:35;94535.97;;;3.49;76.03
20612;BME280;10465;42.686;23.364;2023-02-04T03:34:02;94515.88;;;3.34;75.64
20612;BME280;10465;42.686;23.364;2023-02-04T03:36:27;94525.53;;;3.43;75.72
20612;BME280;10465;42.686;23.364;2023-02-04T03:38:53;94539.94;;;3.41;76.24
20612;BME280;10465;42.686;23.364;2023-02-04T03:41:18;94501.00;;;3.29;75.91
20612;BME280;10465;42.686;23.364;2023-02-04T03:43:44;94502.03;;;3.23;75.73
20612;BME280;10465;42.686;23.364;2023-02-04T03:46:09;94492.63;;;3.22;76.14
20612;BME280;10465;42.686;23.364;2023-02-04T03:48:34;94520.28;;;3.43;75.92
20612;BME280;10465;42.686;23.364;2023-02-04T03:51:00;94516.91;;;3.38;76.04
20612;BME280;10465;42.686;23.364;2023-02-04T03:53:25;94518.53;;;3.29;76.66
20612;BME280;10465;42.686;23.364;2023-02-04T03:55:51;94515.59;;;3.35;76.53
20612;BME280;10465;42.686;23.364;2023-02-04T03:58:16;94492.84;;;3.36;76.50
20612;BME280;10465;42.686;23.364;2023-02-04T04:00:42;94479.03;;;3.20;76.04
20612;BME280;10465;42.686;23.364;2023-02-04T04:03:07;94476.66;;;3.29;75.84
20612;BME280;10465;42.686;23.364;2023-02-04T04:05:33;94460.38;;;3.42;75.63
20612;BME280;10465;42.686;23.364;2023-02-04T04:07:58;94474.91;;;3.63;75.31
20612;BME280;10465;42.686;23.364;2023-02-04T04:10:24;94449.63;;;3.49;75.11
20612;BME280;10465;42.686;23.364;2023-02-04T04:12:49;94468.34;;;3.71;76.19
20612;BME280;10465;42.686;23.364;2023-02-04T04:15:15;94429.22;;;3.45;76.70
20612;BME280;10465;42.686;23.364;2023-02-04T04:17:40;94457.38;;;3.64;75.44
20612;BME280;10465;42.686;23.364;2023-02-04T04:20:06;94447.22;;;3.57;75.52
20612;BME280;10465;42.686;23.364;2023-02-04T04:22:31;94444.59;;;3.57;75.71
20612;BME280;10465;42.686;23.364;2023-02-04T04:24:58;94441.66;;;3.64;75.75
20612;BME280;10465;42.686;23.364;2023-02-04T04:27:23;94454.72;;;3.74;77.01
20612;BME280;10465;42.686;23.364;2023-02-04T04:29:50;94436.19;;;3.60;76.95
20612;BME280;10465;42.686;23.364;2023-02-04T04:32:15;94453.91;;;3.79;76.57
20612;BME280;10465;42.686;23.364;2023-02-04T04:34:41;94471.59;;;3.92;76.49
20612;BME280;10465;42.686;23.364;2023-02-04T04:37:06;94466.13;;;3.88;76.54
20612;BME280;10465;42.686;23.364;2023-02-04T04:39:32;94460.88;;;3.88;75.60
20612;BME280;10465;42.686;23.364;2023-02-04T04:41:57;94467.38;;;4.01;75.76
20612;BME280;10465;42.686;23.364;2023-02-04T04:44:23;94467.28;;;3.77;75.70
20612;BME280;10465;42.686;23.364;2023-02-04T04:46:48;94471.66;;;3.87;75.89
20612;BME280;10465;42.686;23.364;2023-02-04T04:49:14;94493.63;;;3.91;75.62
20612;BME280;10465;42.686;23.364;2023-02-04T04:51:40;94479.22;;;3.88;75.98
20612;BME280;10465;42.686;23.364;2023-02-04T04:54:06;94465.69;;;3.76;76.91
20612;BME280;10465;42.686;23.364;2023-02-04T04:56:32;94473.81;;;3.75;77.80
20612;BME280;10465;42.686;23.364;2023-02-04T04:58:57;94465.66;;;3.81;78.04
20612;BME280;10465;42.686;23.364;2023-02-04T05:01:23;94500.06;;;4.04;78.20
20612;BME280;10465;42.686;23.364;2023-02-04T05:03:48;94463.50;;;3.88;78.59
20612;BME280;10465;42.686;23.364;2023-02-04T05:06:14;94459.09;;;3.84;79.09
20612;BME280;10465;42.686;23.364;2023-02-04T05:08:40;94481.78;;;3.99;80.09
20612;BME280;10465;42.686;23.364;2023-02-04T05:11:05;94482.53;;;4.04;79.68
20612;BME280;10465;42.686;23.364;2023-02-04T05:13:32;94481.25;;;3.96;80.34
20612;BME280;10465;42.686;23.364;2023-02-04T05:16:00;94461.78;;;3.74;80.04
20612;BME280;10465;42.686;23.364;2023-02-04T05:18:25;94462.31;;;3.70;80.40
20612;BME280;10465;42.686;23.364;2023-02-04T05:20:51;94426.88;;;3.44;81.00
20612;BME280;10465;42.686;23.364;2023-02-04T05:23:16;94499.91;;;3.90;81.69
20612;BME280;10465;42.686;23.364;2023-02-04T05:25:41;94482.63;;;3.89;81.89
20612;BME280;10465;42.686;23.364;2023-02-04T05:28:07;94524.41;;;4.09;81.66
20612;BME280;10465;42.686;23.364;2023-02-04T05:30:34;94529.34;;;4.16;79.73
20612;BME280;10465;42.686;23.364;2023-02-04T05:33:00;94521.72;;;4.19;78.33
20612;BME280;10465;42.686;23.364;2023-02-04T05:35:25;94522.88;;;4.42;77.45
20612;BME280;10465;42.686;23.364;2023-02-04T05:37:50;94493.34;;;4.32;76.27
20612;BME280;10465;42.686;23.364;2023-02-04T05:40:16;94505.34;;;4.38;75.78
20612;BME280;10465;42.686;23.364;2023-02-04T05:42:42;94537.06;;;4.70;75.61
20612;BME280;10465;42.686;23.364;2023-02-04T05:45:15;94516.09;;;4.70;74.96
20612;BME280;10465;42.686;23.364;2023-02-04T05:47:41;94513.50;;;4.65;73.66
20612;BME280;10465;42.686;23.364;2023-02-04T05:50:07;94541.16;;;4.82;73.63
20612;BME280;10465;42.686;23.364;2023-02-04T05:52:33;94531.13;;;4.89;73.01
20612;BME280;10465;42.686;23.364;2023-02-04T05:54:58;94496.34;;;4.78;72.16
20612;BME280;10465;42.686;23.364;2023-02-04T05:57:24;94521.03;;;5.01;72.16
20612;BME280;10465;42.686;23.364;2023-02-04T05:59:49;94514.53;;;4.99;71.56
20612;BME280;10465;42.686;23.364;2023-02-04T06:02:15;94528.06;;;5.06;70.60
20612;BME280;10465;42.686;23.364;2023-02-04T06:04:40;94513.72;;;4.98;70.20
20612;BME280;10465;42.686;23.364;2023-02-04T06:07:06;94500.66;;;4.93;70.31
20612;BME280;10465;42.686;23.364;2023-02-04T06:09:31;94502.63;;;5.06;69.62
20612;BME280;10465;42.686;23.364;2023-02-04T06:11:57;94521.19;;;5.15;69.71
20612;BME280;10465;42.686;23.364;2023-02-04T06:14:23;94467.16;;;4.85;69.59
20612;BME280;10465;42.686;23.364;2023-02-04T06:16:48;94489.06;;;4.99;68.94
20612;BME280;10465;42.686;23.364;2023-02-04T06:19:13;94529.06;;;5.39;68.50
20612;BME280;10465;42.686;23.364;2023-02-04T06:21:39;94522.84;;;5.30;67.97
20612;BME280;10465;42.686;23.364;2023-02-04T06:24:05;94537.41;;;5.41;68.05
20612;BME280;10465;42.686;23.364;2023-02-04T06:26:30;94514.47;;;5.28;67.89
20612;BME280;10465;42.686;23.364;2023-02-04T06:28:56;94500.22;;;5.10;67.78
20612;BME280;10465;42.686;23.364;2023-02-04T06:31:21;94522.84;;;5.30;67.19
20612;BME280;10465;42.686;23.364;2023-02-04T06:33:47;94530.06;;;5.43;67.00
20612;BME280;10465;42.686;23.364;2023-02-04T06:36:12;94524.69;;;5.29;66.77
20612;BME280;10465;42.686;23.364;2023-02-04T06:38:37;94524.28;;;5.41;66.81
20612;BME280;10465;42.686;23.364;2023-02-04T06:41:03;94539.38;;;5.54;66.31
20612;BME280;10465;42.686;23.364;2023-02-04T06:43:28;94505.84;;;5.46;65.50
20612;BME280;10465;42.686;23.364;2023-02-04T06:45:54;94538.19;;;5.41;65.29
20612;BME280;10465;42.686;23.364;2023-02-04T06:48:19;94510.78;;;5.29;65.33
20612;BME280;10465;42.686;23.364;2023-02-04T06:50:45;94511.34;;;5.26;65.92
20612;BME280;10465;42.686;23.364;2023-02-04T06:53:10;94522.69;;;5.45;64.94
20612;BME280;10465;42.686;23.364;2023-02-04T06:55:36;94504.13;;;5.36;64.77
20612;BME280;10465;42.686;23.364;2023-02-04T06:58:01;94518.72;;;5.48;64.65
20612;BME280;10465;42.686;23.364;2023-02-04T07:00:27;94474.88;;;5.24;64.00
20612;BME280;10465;42.686;23.364;2023-02-04T07:02:52;94490.47;;;5.39;63.50
20612;BME280;10465;42.686;23.364;2023-02-04T07:05:18;94504.44;;;5.35;63.63
20612;BME280;10465;42.686;23.364;2023-02-04T07:07:43;94481.06;;;5.33;63.86
20612;BME280;10465;42.686;23.364;2023-02-04T07:10:09;94512.72;;;5.66;63.02
20612;BME280;10465;42.686;23.364;2023-02-04T07:12:34;94521.59;;;5.70;62.88
20612;BME280;10465;42.686;23.364;2023-02-04T07:15:00;94506.81;;;5.74;62.51
20612;BME280;10465;42.686;23.364;2023-02-04T07:17:25;94503.75;;;6.10;61.84
20612;BME280;10465;42.686;23.364;2023-02-04T07:19:50;94480.44;;;6.03;60.95
20612;BME280;10465;42.686;23.364;2023-02-04T07:22:17;94489.88;;;6.42;59.80
20612;BME280;10465;42.686;23.364;2023-02-04T07:24:43;94475.31;;;6.31;59.69
20612;BME280;10465;42.686;23.364;2023-02-04T07:27:08;94499.03;;;6.77;58.77
20612;BME280;10465;42.686;23.364;2023-02-04T07:29:34;94498.75;;;6.92;58.45
20612;BME280;10465;42.686;23.364;2023-02-04T07:31:59;94505.88;;;6.92;58.30
20612;BME280;10465;42.686;23.364;2023-02-04T07:34:25;94502.13;;;6.79;58.29
20612;BME280;10465;42.686;23.364;2023-02-04T07:36:50;94507.97;;;6.76;58.81
20612;BME280;10465;42.686;23.364;2023-02-04T07:39:15;94507.94;;;7.09;57.90
20612;BME280;10465;42.686;23.364;2023-02-04T07:41:41;94493.91;;;7.13;57.23
20612;BME280;10465;42.686;23.364;2023-02-04T07:44:06;94518.31;;;7.47;56.62
20612;BME280;10465;42.686;23.364;2023-02-04T07:46:32;94458.91;;;6.99;56.19
20612;BME280;10465;42.686;23.364;2023-02-04T07:48:57;94514.41;;;7.30;57.02
20612;BME280;10465;42.686;23.364;2023-02-04T07:51:23;94499.25;;;7.08;56.81
20612;BME280;10465;42.686;23.364;2023-02-04T07:53:48;94488.16;;;7.39;56.43
20612;BME280;10465;42.686;23.364;2023-02-04T07:56:13;94485.63;;;7.48;55.64
20612;BME280;10465;42.686;23.364;2023-02-04T07:58:39;94497.38;;;7.91;54.94
20612;BME280;10465;42.686;23.364;2023-02-04T08:01:04;94481.88;;;7.76;54.37
20612;BME280;10465;42.686;23.364;2023-02-04T08:03:30;94513.41;;;8.17;53.60
20612;BME280;10465;42.686;23.364;2023-02-04T08:05:55;94500.84;;;8.01;54.23
20612;BME280;10465;42.686;23.364;2023-02-04T08:08:21;94477.56;;;7.80;54.64
20612;BME280;10465;42.686;23.364;2023-02-04T08:10:46;94509.69;;;7.82;54.32
20612;BME280;10465;42.686;23.364;2023-02-04T08:13:12;94505.31;;;7.64;55.27
20612;BME280;10465;42.686;23.364;2023-02-04T08:15:37;94483.69;;;7.39;55.59
20612;BME280;10465;42.686;23.364;2023-02-04T08:18:03;94504.66;;;7.31;56.41
20612;BME280;10465;42.686;23.364;2023-02-04T08:20:29;94481.03;;;6.98;57.01
20612;BME280;10465;42.686;23.364;2023-02-04T08:22:55;94514.78;;;7.24;57.19
20612;BME280;10465;42.686;23.364;2023-02-04T08:25:21;94508.91;;;7.13;57.57
20612;BME280;10465;42.686;23.364;2023-02-04T08:27:46;94454.47;;;6.67;57.92
20612;BME280;10465;42.686;23.364;2023-02-04T08:30:12;94490.00;;;6.97;58.51
20612;BME280;10465;42.686;23.364;2023-02-04T08:32:38;94506.78;;;7.01;59.14
20612;BME280;10465;42.686;23.364;2023-02-04T08:35:04;94499.72;;;6.97;59.67
20612;BME280;10465;42.686;23.364;2023-02-04T08:37:29;94483.44;;;6.81;59.74
20612;BME280;10465;42.686;23.364;2023-02-04T08:39:55;94500.28;;;6.80;60.77
20612;BME280;10465;42.686;23.364;2023-02-04T08:42:20;94494.97;;;6.85;61.37
20612;BME280;10465;42.686;23.364;2023-02-04T08:44:46;94481.19;;;6.74;61.02
20612;BME280;10465;42.686;23.364;2023-02-04T08:47:12;94427.91;;;6.36;61.34
20612;BME280;10465;42.686;23.364;2023-02-04T08:49:37;94495.78;;;6.66;60.98
20612;BME280;10465;42.686;23.364;2023-02-04T08:52:03;94499.06;;;6.58;60.93
20612;BME280;10465;42.686;23.364;2023-02-04T08:54:30;94500.63;;;6.59;61.55
20612;BME280;10465;42.686;23.364;2023-02-04T08:56:56;94505.94;;;6.40;62.40
20612;BME280;10465;42.686;23.364;2023-02-04T08:59:21;94492.47;;;6.61;62.19
20612;BME280;10465;42.686;23.364;2023-02-04T09:01:49;94490.41;;;6.58;63.04
20612;BME280;10465;42.686;23.364;2023-02-04T09:04:20;94504.63;;;6.57;62.97
20612;BME280;10465;42.686;23.364;2023-02-04T09:06:46;94498.81;;;6.74;62.73
20612;BME280;10465;42.686;23.364;2023-02-04T09:09:12;94476.88;;;6.64;62.84
20612;BME280;10465;42.686;23.364;2023-02-04T09:11:38;94501.66;;;6.77;62.81
20612;BME280;10465;42.686;23.364;2023-02-04T09:14:03;94476.81;;;6.69;62.61
20612;BME280;10465;42.686;23.364;2023-02-04T09:16:29;94469.88;;;6.74;63.44
20612;BME280;10465;42.686;23.364;2023-02-04T09:18:54;94483.44;;;6.81;62.88
20612;BME280;10465;42.686;23.364;2023-02-04T09:21:20;94486.41;;;6.93;62.35
20612;BME280;10465;42.686;23.364;2023-02-04T09:23:46;94460.16;;;6.74;61.67
20612;BME280;10465;42.686;23.364;2023-02-04T09:26:12;94470.38;;;6.76;61.47
20612;BME280;10465;42.686;23.364;2023-02-04T09:28:38;94482.19;;;6.92;61.19
20612;BME280;10465;42.686;23.364;2023-02-04T09:31:03;94450.69;;;6.73;60.79
20612;BME280;10465;42.686;23.364;2023-02-04T09:33:31;94483.66;;;6.98;60.54
20612;BME280;10465;42.686;23.364;2023-02-04T09:35:57;94465.16;;;6.89;60.26
20612;BME280;10465;42.686;23.364;2023-02-04T09:38:23;94453.34;;;6.87;60.05
20612;BME280;10465;42.686;23.364;2023-02-04T09:40:52;94461.22;;;6.87;61.16
20612;BME280;10465;42.686;23.364;2023-02-04T09:43:23;94475.94;;;6.88;63.42
20612;BME280;10465;42.686;23.364;2023-02-04T09:45:49;94469.56;;;6.29;65.74
20612;BME280;10465;42.686;23.364;2023-02-04T09:48:15;94387.09;;;5.92;67.35
20612;BME280;10465;42.686;23.364;2023-02-04T09:50:41;94423.50;;;6.31;67.47
20612;BME280;10465;42.686;23.364;2023-02-04T09:53:12;94429.69;;;6.40;68.26
20612;BME280;10465;42.686;23.364;2023-02-04T09:55:39;94434.00;;;6.50;68.53
20612;BME280;10465;42.686;23.364;2023-02-04T09:58:13;94442.50;;;6.61;68.94
20612;BME280;10465;42.686;23.364;2023-02-04T10:00:40;94441.13;;;6.63;68.54
20612;BME280;10465;42.686;23.364;2023-02-04T10:03:13;94432.97;;;6.65;68.58
20612;BME280;10465;42.686;23.364;2023-02-04T10:05:40;94436.25;;;6.57;68.77
20612;BME280;10465;42.686;23.364;2023-02-04T10:08:05;94405.63;;;6.33;69.48
20612;BME280;10465;42.686;23.364;2023-02-04T10:10:31;94436.94;;;6.62;69.43
20612;BME280;10465;42.686;23.364;2023-02-04T10:12:59;94448.03;;;6.59;69.97
20612;BME280;10465;42.686;23.364;2023-02-04T10:15:25;94438.50;;;6.63;69.19
20612;BME280;10465;42.686;23.364;2023-02-04T10:17:54;94431.91;;;6.33;69.25
20612;BME280;10465;42.686;23.364;2023-02-04T10:20:23;94433.66;;;6.38;69.96
20612;BME280;10465;42.686;23.364;2023-02-04T10:22:52;94433.25;;;6.31;69.97
20612;BME280;10465;42.686;23.364;2023-02-04T10:25:23;94428.88;;;6.40;69.81
20612;BME280;10465;42.686;23.364;2023-02-04T10:27:55;94423.94;;;6.52;69.24
20612;BME280;10465;42.686;23.364;2023-02-04T10:30:23;94425.06;;;6.65;69.46
20612;BME280;10465;42.686;23.364;2023-02-04T10:32:49;94427.69;;;6.79;68.87
20612;BME280;10465;42.686;23.364;2023-02-04T10:35:17;94431.31;;;6.69;68.95
20612;BME280;10465;42.686;23.364;2023-02-04T10:37:43;94407.44;;;6.79;68.53
20612;BME280;10465;42.686;23.364;2023-02-04T10:40:28;94382.88;;;6.70;68.37
20612;BME280;10465;42.686;23.364;2023-02-04T10:42:55;94421.84;;;6.68;69.12
20612;BME280;10465;42.686;23.364;2023-02-04T10:45:26;94424.03;;;6.33;71.74
20612;BME280;10465;42.686;23.364;2023-02-04T10:47:53;94378.44;;;6.24;72.19
20612;BME280;10465;42.686;23.364;2023-02-04T10:50:22;94406.56;;;6.56;72.67
20612;BME280;10465;42.686;23.364;2023-02-04T10:52:53;94348.25;;;6.35;72.46
20612;BME280;10465;42.686;23.364;2023-02-04T10:55:39;94395.63;;;6.49;72.53
20612;BME280;10465;42.686;23.364;2023-02-04T10:58:05;94385.50;;;6.56;72.94
20612;BME280;10465;42.686;23.364;2023-02-04T11:00:30;94371.47;;;6.47;72.64
20612;BME280;10465;42.686;23.364;2023-02-04T11:03:00;94370.78;;;6.55;72.52
20612;BME280;10465;42.686;23.364;2023-02-04T11:05:32;94374.22;;;6.69;72.97
20612;BME280;10465;42.686;23.364;2023-02-04T11:07:58;94401.59;;;6.96;72.31
20612;BME280;10465;42.686;23.364;2023-02-04T11:10:29;94401.50;;;6.87;72.69
20612;BME280;10465;42.686;23.364;2023-02-04T11:18:09;94374.91;;;6.89;71.84
20612;BME280;10465;42.686;23.364;2023-02-04T11:20:35;94382.97;;;6.92;71.44
20612;BME280;10465;42.686;23.364;2023-02-04T11:28:54;94389.09;;;7.29;70.27
20612;BME280;10465;42.686;23.364;2023-02-04T11:33:46;94374.97;;;7.11;69.90
20612;BME280;10465;42.686;23.364;2023-02-04T11:36:13;94355.22;;;6.86;70.14
20612;BME280;10465;42.686;23.364;2023-02-04T11:38:44;94369.03;;;6.92;70.15
20612;BME280;10465;42.686;23.364;2023-02-04T11:41:25;94395.06;;;6.93;71.18
20612;BME280;10465;42.686;23.364;2023-02-04T11:43:53;94386.69;;;6.91;70.86
20612;BME280;10465;42.686;23.364;2023-02-04T11:46:19;94390.97;;;6.87;70.74
20612;BME280;10465;42.686;23.364;2023-02-04T11:48:45;94397.91;;;6.97;71.05
20612;BME280;10465;42.686;23.364;2023-02-04T11:51:17;94373.53;;;6.78;71.45
20612;BME280;10465;42.686;23.364;2023-02-04T11:53:51;94402.94;;;6.80;72.27
20612;BME280;10465;42.686;23.364;2023-02-04T11:56:18;94389.59;;;6.76;73.01
20612;BME280;10465;42.686;23.364;2023-02-04T11:58:44;94361.03;;;6.56;73.07
20612;BME280;10465;42.686;23.364;2023-02-04T12:01:20;94345.06;;;6.52;72.79
20612;BME280;10465;42.686;23.364;2023-02-04T12:03:48;94398.75;;;6.79;72.31
20612;BME280;10465;42.686;23.364;2023-02-04T12:06:25;94392.13;;;6.67;72.97
20612;BME280;10465;42.686;23.364;2023-02-04T12:08:51;94396.63;;;6.81;73.10
20612;BME280;10465;42.686;23.364;2023-02-04T12:11:26;94381.91;;;6.80;73.21
20612;BME280;10465;42.686;23.364;2023-02-04T12:13:53;94375.00;;;6.70;73.47
20612;BME280;10465;42.686;23.364;2023-02-04T12:16:21;94336.97;;;6.35;73.67
20612;BME280;10465;42.686;23.364;2023-02-04T12:18:46;94314.91;;;6.03;74.18
20612;BME280;10465;42.686;23.364;2023-02-04T12:21:12;94380.22;;;6.42;74.89
20612;BME280;10465;42.686;23.364;2023-02-04T12:23:39;94363.09;;;6.45;74.66
20612;BME280;10465;42.686;23.364;2023-02-04T12:26:04;94354.34;;;6.50;75.09
20612;BME280;10465;42.686;23.364;2023-02-04T12:28:30;94381.56;;;6.40;75.70
20612;BME280;10465;42.686;23.364;2023-02-04T12:30:56;94348.00;;;6.37;75.03
20612;BME280;10465;42.686;23.364;2023-02-04T12:33:21;94345.06;;;6.38;76.00
20612;BME280;10465;42.686;23.364;2023-02-04T12:35:47;94339.69;;;6.30;75.33
20612;BME280;10465;42.686;23.364;2023-02-04T12:38:13;94348.47;;;6.39;75.50
20612;BME280;10465;42.686;23.364;2023-02-04T12:40:39;94350.81;;;6.40;75.18
20612;BME280;10465;42.686;23.364;2023-02-04T12:43:04;94348.47;;;6.39;75.78
20612;BME280;10465;42.686;23.364;2023-02-04T12:45:30;94363.16;;;6.40;75.76
20612;BME280;10465;42.686;23.364;2023-02-04T12:47:56;94352.28;;;6.33;76.38
20612;BME280;10465;42.686;23.364;2023-02-04T12:50:21;94360.84;;;6.38;76.54
20612;BME280;10465;42.686;23.364;2023-02-04T12:52:51;94322.63;;;6.13;75.82
20612;BME280;10465;42.686;23.364;2023-02-04T12:55:19;94333.88;;;6.33;75.05
20612;BME280;10465;42.686;23.364;2023-02-04T12:57:45;94355.31;;;6.54;75.43
20612;BME280;10465;42.686;23.364;2023-02-04T13:00:12;94362.53;;;6.62;75.32
20612;BME280;10465;42.686;23.364;2023-02-04T13:02:38;94347.41;;;6.54;73.72
20612;BME280;10465;42.686;23.364;2023-02-04T13:05:04;94358.13;;;6.57;73.19
20612;BME280;10465;42.686;23.364;2023-02-04T13:07:29;94350.44;;;6.47;73.88
20612;BME280;10465;42.686;23.364;2023-02-04T13:09:55;94329.75;;;6.27;72.92